»·PEaware :: N920LA KSNA-KCNO

N920LA :: KSNA-KCNO

FLIGHT INFORMATION

Flight Status: Arrived
Operator: Privately registered:
United States
More flights under this callsign
Pilot: Marco B. (23309)
Aircraft: Diamond DA-40
(DA40)
More flights by this aircraft type
Origin: KSNA John Wayne-Orange Co
United States
Destination: KCNO Chino
United States
More flights between these airports :: More routes between these airports
Route: SLI V8 PDZ
File this flight plan on PilotEdge
Remarks: Practice IFR approaches
Altitude:
(Current/Filed)
5,000ft
Speed:
(Current/Filed)
130kts
Departed: 12-Jan-21 04:03 PM
Arrived: 12-Jan-21 04:56 PM
Distance/Time
Traveled:
21nm/0:53
Distance/Time
To Go:
Arrived

Flight Plot

Page will automatically refresh every two minutes.


Map Options




Map Legend


Flown Route
Filed Route
Departure Airport
Arrival Airport
Navaid (VOR, NDB)
Fix

Horizontal Profiles

Position Reports

Time Latitude Longitude Heading Altitude Ground
Speed
12-Jan-21 15:47 33.679299 -117.862263 118 59ft 0kts
12-Jan-21 15:47 33.679299 -117.862263 118 59ft 0kts
12-Jan-21 15:49 33.679299 -117.862263 118 59ft 0kts
12-Jan-21 15:49 33.679299 -117.862263 118 59ft 0kts
12-Jan-21 15:51 33.679299 -117.862263 118 59ft 0kts
12-Jan-21 15:51 33.679299 -117.862263 118 59ft 0kts
12-Jan-21 15:52 33.679299 -117.862263 118 59ft 0kts
12-Jan-21 15:53 33.679299 -117.862263 118 59ft 0kts
12-Jan-21 15:54 33.679299 -117.862263 118 59ft 0kts
12-Jan-21 15:55 33.679299 -117.862263 118 59ft 0kts
12-Jan-21 15:56 33.679299 -117.862263 118 59ft 0kts
12-Jan-21 15:57 33.679675 -117.863011 303 59ft 8kts
12-Jan-21 15:58 33.679976 -117.863527 269 59ft 0kts
12-Jan-21 15:59 33.679976 -117.863527 269 59ft 0kts
12-Jan-21 16:00 33.679976 -117.863527 269 59ft 0kts
12-Jan-21 16:01 33.679982 -117.863675 288 59ft 5kts
12-Jan-21 16:02 33.673793 -117.868278 216 279ft 53kts
12-Jan-21 16:03 33.661595 -117.882124 232 765ft 74kts
12-Jan-21 16:04 33.650126 -117.898076 229 1575ft 73kts
12-Jan-21 16:05 33.636153 -117.916008 233 2438ft 73kts
12-Jan-21 16:06 33.626412 -117.934710 294 3196ft 79kts
12-Jan-21 16:07 33.645056 -117.950955 315 3962ft 85kts
12-Jan-21 16:08 33.664013 -117.966258 319 4715ft 83kts
12-Jan-21 16:09 33.685967 -117.982589 314 5004ft 108kts
12-Jan-21 16:10 33.713110 -118.004898 317 4978ft 125kts
12-Jan-21 16:11 33.742259 -118.027016 319 4979ft 123kts
12-Jan-21 16:12 33.774217 -118.036666 41 5048ft 153kts
12-Jan-21 16:13 33.791311 -117.988147 64 5078ft 159kts
12-Jan-21 16:14 33.810101 -117.939317 58 4991ft 160kts
12-Jan-21 16:15 33.827378 -117.889865 71 4968ft 162kts
12-Jan-21 16:16 33.838887 -117.837906 73 4993ft 159kts
12-Jan-21 16:17 33.852307 -117.786955 70 5012ft 160kts
12-Jan-21 16:18 33.864424 -117.735546 71 5032ft 160kts
12-Jan-21 16:19 33.878111 -117.684467 68 5051ft 160kts
12-Jan-21 16:20 33.890461 -117.639400 69 5019ft 163kts
12-Jan-21 16:21 33.902449 -117.587311 75 5027ft 162kts
12-Jan-21 16:22 33.917441 -117.533444 70 4483ft 176kts
12-Jan-21 16:23 33.935671 -117.481889 62 4377ft 163kts
12-Jan-21 16:24 33.953117 -117.432393 63 4402ft 160kts
12-Jan-21 16:25 33.970683 -117.383050 63 4399ft 159kts
12-Jan-21 16:26 33.984262 -117.332258 75 4413ft 159kts
12-Jan-21 16:27 34.001582 -117.283392 72 4401ft 161kts
12-Jan-21 16:28 33.982370 -117.274584 262 4398ft 118kts
12-Jan-21 16:29 33.980082 -117.313923 265 4419ft 116kts
12-Jan-21 16:30 33.978462 -117.351261 266 4403ft 118kts
12-Jan-21 16:31 33.977953 -117.391899 267 4140ft 128kts
12-Jan-21 16:32 33.977467 -117.435596 268 3642ft 132kts
12-Jan-21 16:33 33.977083 -117.480411 267 3060ft 135kts
12-Jan-21 16:34 33.976552 -117.526197 267 2359ft 139kts
12-Jan-21 16:35 33.976322 -117.571973 268 1609ft 110kts
12-Jan-21 16:36 33.976072 -117.599029 265 1196ft 77kts
12-Jan-21 16:37 33.975914 -117.624656 262 1476ft 75kts
12-Jan-21 16:38 33.975410 -117.651950 265 2303ft 83kts
12-Jan-21 16:39 33.974968 -117.678954 267 3206ft 79kts
12-Jan-21 16:40 33.974979 -117.705362 268 4010ft 84kts
12-Jan-21 16:41 33.968503 -117.737865 257 3986ft 101kts
12-Jan-21 16:42 33.957467 -117.767265 198 3985ft 118kts
12-Jan-21 16:43 33.942441 -117.725955 100 3989ft 160kts
12-Jan-21 16:44 33.935402 -117.673010 101 3995ft 158kts
12-Jan-21 16:45 33.928851 -117.621819 99 3989ft 159kts
12-Jan-21 16:46 33.922741 -117.568946 98 4003ft 158kts
12-Jan-21 16:47 33.928692 -117.513897 80 3658ft 168kts
12-Jan-21 16:48 33.936352 -117.457209 80 3145ft 174kts
12-Jan-21 16:49 33.969406 -117.437828 307 2983ft 133kts
12-Jan-21 16:50 33.976357 -117.476942 268 3003ft 121kts
12-Jan-21 16:51 33.976491 -117.520878 266 2475ft 139kts
12-Jan-21 16:52 33.976277 -117.568259 267 1694ft 142kts
12-Jan-21 16:53 33.976087 -117.601892 264 1139ft 71kts
12-Jan-21 16:54 33.975953 -117.621141 262 840ft 72kts
12-Jan-21 16:55 33.975561 -117.637791 234 627ft 8kts
12-Jan-21 16:56 33.974804 -117.638698 222 622ft 0kts

Navigation Log

Ident Type
Flight plan parsing failed, navigation log unavailable